sensor_id;sensor_type;location;lat;lon;timestamp;P1;durP1;ratioP1;P2;durP2;ratioP2
15812;SDS011;8007;51.404;6.304;2022-08-21T00:01:19;9.33;;;5.70;;
15812;SDS011;8007;51.404;6.304;2022-08-21T00:03:25;8.83;;;5.33;;
15812;SDS011;8007;51.404;6.304;2022-08-21T00:05:28;7.83;;;5.40;;
15812;SDS011;8007;51.404;6.304;2022-08-21T00:07:32;8.43;;;5.03;;
15812;SDS011;8007;51.404;6.304;2022-08-21T00:09:34;7.03;;;5.20;;
15812;SDS011;8007;51.404;6.304;2022-08-21T00:11:38;8.23;;;5.43;;
15812;SDS011;8007;51.404;6.304;2022-08-21T00:13:40;6.83;;;5.13;;
15812;SDS011;8007;51.404;6.304;2022-08-21T00:15:43;6.73;;;5.30;;
15812;SDS011;8007;51.404;6.304;2022-08-21T00:17:45;5.63;;;5.13;;
15812;SDS011;8007;51.404;6.304;2022-08-21T00:19:47;5.73;;;5.13;;
15812;SDS011;8007;51.404;6.304;2022-08-21T00:21:50;7.13;;;5.37;;
15812;SDS011;8007;51.404;6.304;2022-08-21T00:23:54;7.73;;;5.00;;
15812;SDS011;8007;51.404;6.304;2022-08-21T00:25:56;9.13;;;5.40;;
15812;SDS011;8007;51.404;6.304;2022-08-21T00:28:00;7.23;;;4.57;;
15812;SDS011;8007;51.404;6.304;2022-08-21T00:30:03;6.00;;;4.60;;
15812;SDS011;8007;51.404;6.304;2022-08-21T00:32:06;5.67;;;4.57;;
15812;SDS011;8007;51.404;6.304;2022-08-21T00:34:09;5.60;;;4.97;;
15812;SDS011;8007;51.404;6.304;2022-08-21T00:36:11;7.27;;;4.90;;
15812;SDS011;8007;51.404;6.304;2022-08-21T00:38:14;8.67;;;5.40;;
15812;SDS011;8007;51.404;6.304;2022-08-21T00:40:19;6.23;;;4.87;;
15812;SDS011;8007;51.404;6.304;2022-08-21T00:42:23;7.93;;;4.93;;
15812;SDS011;8007;51.404;6.304;2022-08-21T00:44:26;7.50;;;5.10;;
15812;SDS011;8007;51.404;6.304;2022-08-21T00:46:28;6.53;;;5.20;;
15812;SDS011;8007;51.404;6.304;2022-08-21T00:48:31;6.40;;;5.20;;
15812;SDS011;8007;51.404;6.304;2022-08-21T00:50:35;6.63;;;5.00;;
15812;SDS011;8007;51.404;6.304;2022-08-21T00:52:41;8.47;;;4.97;;
15812;SDS011;8007;51.404;6.304;2022-08-21T00:54:44;8.83;;;5.20;;
15812;SDS011;8007;51.404;6.304;2022-08-21T00:56:50;6.97;;;5.07;;
15812;SDS011;8007;51.404;6.304;2022-08-21T00:58:57;5.33;;;4.83;;
15812;SDS011;8007;51.404;6.304;2022-08-21T01:01:00;8.23;;;4.67;;
15812;SDS011;8007;51.404;6.304;2022-08-21T01:03:05;8.80;;;5.47;;
15812;SDS011;8007;51.404;6.304;2022-08-21T01:05:10;7.60;;;4.70;;
15812;SDS011;8007;51.404;6.304;2022-08-21T01:07:12;7.20;;;4.77;;
15812;SDS011;8007;51.404;6.304;2022-08-21T01:09:15;5.27;;;4.30;;
15812;SDS011;8007;51.404;6.304;2022-08-21T01:11:17;5.63;;;4.30;;
15812;SDS011;8007;51.404;6.304;2022-08-21T01:13:21;6.20;;;4.43;;
15812;SDS011;8007;51.404;6.304;2022-08-21T01:15:27;7.17;;;4.50;;
15812;SDS011;8007;51.404;6.304;2022-08-21T01:17:32;6.17;;;4.53;;
15812;SDS011;8007;51.404;6.304;2022-08-21T01:19:35;7.63;;;5.63;;
15812;SDS011;8007;51.404;6.304;2022-08-21T01:21:39;5.57;;;4.40;;
15812;SDS011;8007;51.404;6.304;2022-08-21T01:23:43;7.10;;;5.33;;
15812;SDS011;8007;51.404;6.304;2022-08-21T01:25:47;6.60;;;4.20;;
15812;SDS011;8007;51.404;6.304;2022-08-21T01:27:49;5.70;;;4.30;;
15812;SDS011;8007;51.404;6.304;2022-08-21T01:29:53;6.37;;;5.00;;
15812;SDS011;8007;51.404;6.304;2022-08-21T01:31:57;5.10;;;4.53;;
15812;SDS011;8007;51.404;6.304;2022-08-21T01:34:00;5.77;;;4.53;;
15812;SDS011;8007;51.404;6.304;2022-08-21T01:36:03;5.93;;;4.30;;
15812;SDS011;8007;51.404;6.304;2022-08-21T01:38:07;5.47;;;4.47;;
15812;SDS011;8007;51.404;6.304;2022-08-21T01:40:10;8.93;;;4.53;;
15812;SDS011;8007;51.404;6.304;2022-08-21T01:42:13;5.00;;;4.50;;
15812;SDS011;8007;51.404;6.304;2022-08-21T01:44:15;5.23;;;3.87;;
15812;SDS011;8007;51.404;6.304;2022-08-21T01:46:20;5.63;;;4.20;;
15812;SDS011;8007;51.404;6.304;2022-08-21T01:48:23;5.43;;;4.43;;
15812;SDS011;8007;51.404;6.304;2022-08-21T01:50:25;7.07;;;4.43;;
15812;SDS011;8007;51.404;6.304;2022-08-21T01:52:28;4.77;;;4.13;;
15812;SDS011;8007;51.404;6.304;2022-08-21T01:54:32;4.60;;;4.10;;
15812;SDS011;8007;51.404;6.304;2022-08-21T01:56:35;5.33;;;4.30;;
15812;SDS011;8007;51.404;6.304;2022-08-21T01:58:38;6.37;;;4.33;;
15812;SDS011;8007;51.404;6.304;2022-08-21T02:00:41;5.83;;;4.30;;
15812;SDS011;8007;51.404;6.304;2022-08-21T02:02:44;8.57;;;5.40;;
15812;SDS011;8007;51.404;6.304;2022-08-21T02:04:46;5.40;;;4.40;;
15812;SDS011;8007;51.404;6.304;2022-08-21T02:06:48;8.40;;;5.07;;
15812;SDS011;8007;51.404;6.304;2022-08-21T02:08:51;10.47;;;5.70;;
15812;SDS011;8007;51.404;6.304;2022-08-21T02:10:55;5.83;;;5.00;;
15812;SDS011;8007;51.404;6.304;2022-08-21T02:12:58;8.70;;;5.10;;
15812;SDS011;8007;51.404;6.304;2022-08-21T02:15:01;5.17;;;4.40;;
15812;SDS011;8007;51.404;6.304;2022-08-21T02:17:04;5.97;;;4.83;;
15812;SDS011;8007;51.404;6.304;2022-08-21T02:19:06;8.70;;;4.30;;
15812;SDS011;8007;51.404;6.304;2022-08-21T02:21:08;6.13;;;4.00;;
15812;SDS011;8007;51.404;6.304;2022-08-21T02:23:11;7.00;;;4.03;;
15812;SDS011;8007;51.404;6.304;2022-08-21T02:25:14;5.53;;;4.00;;
15812;SDS011;8007;51.404;6.304;2022-08-21T02:27:18;4.40;;;4.00;;
15812;SDS011;8007;51.404;6.304;2022-08-21T02:29:20;5.47;;;3.83;;
15812;SDS011;8007;51.404;6.304;2022-08-21T02:31:22;7.13;;;4.93;;
15812;SDS011;8007;51.404;6.304;2022-08-21T02:33:26;10.20;;;5.60;;
15812;SDS011;8007;51.404;6.304;2022-08-21T02:35:29;7.97;;;5.30;;
15812;SDS011;8007;51.404;6.304;2022-08-21T02:37:31;7.20;;;5.03;;
15812;SDS011;8007;51.404;6.304;2022-08-21T02:39:33;7.80;;;5.00;;
15812;SDS011;8007;51.404;6.304;2022-08-21T02:41:36;6.77;;;4.77;;
15812;SDS011;8007;51.404;6.304;2022-08-21T02:43:39;8.53;;;4.40;;
15812;SDS011;8007;51.404;6.304;2022-08-21T02:45:43;5.87;;;4.43;;
15812;SDS011;8007;51.404;6.304;2022-08-21T02:47:49;7.93;;;4.60;;
15812;SDS011;8007;51.404;6.304;2022-08-21T02:49:52;7.33;;;4.50;;
15812;SDS011;8007;51.404;6.304;2022-08-21T02:51:54;6.80;;;4.90;;
15812;SDS011;8007;51.404;6.304;2022-08-21T02:53:57;6.87;;;4.97;;
15812;SDS011;8007;51.404;6.304;2022-08-21T02:56:00;6.77;;;5.67;;
15812;SDS011;8007;51.404;6.304;2022-08-21T02:58:04;9.40;;;6.10;;
15812;SDS011;8007;51.404;6.304;2022-08-21T03:00:10;14.07;;;7.40;;
15812;SDS011;8007;51.404;6.304;2022-08-21T03:02:13;7.30;;;6.60;;
15812;SDS011;8007;51.404;6.304;2022-08-21T03:04:15;9.63;;;6.63;;
15812;SDS011;8007;51.404;6.304;2022-08-21T03:06:19;8.43;;;6.63;;
15812;SDS011;8007;51.404;6.304;2022-08-21T03:08:22;6.47;;;4.83;;
15812;SDS011;8007;51.404;6.304;2022-08-21T03:10:25;6.63;;;5.00;;
15812;SDS011;8007;51.404;6.304;2022-08-21T03:12:27;9.43;;;5.80;;
15812;SDS011;8007;51.404;6.304;2022-08-21T03:14:30;9.63;;;6.30;;
15812;SDS011;8007;51.404;6.304;2022-08-21T03:16:33;11.77;;;5.20;;
15812;SDS011;8007;51.404;6.304;2022-08-21T03:18:36;11.50;;;4.70;;
15812;SDS011;8007;51.404;6.304;2022-08-21T03:20:39;5.83;;;4.60;;
15812;SDS011;8007;51.404;6.304;2022-08-21T03:22:42;5.43;;;4.93;;
15812;SDS011;8007;51.404;6.304;2022-08-21T03:24:44;6.73;;;5.40;;
15812;SDS011;8007;51.404;6.304;2022-08-21T03:26:47;6.30;;;5.57;;
15812;SDS011;8007;51.404;6.304;2022-08-21T03:28:49;8.00;;;5.63;;
15812;SDS011;8007;51.404;6.304;2022-08-21T03:30:52;9.27;;;5.13;;
15812;SDS011;8007;51.404;6.304;2022-08-21T03:32:56;6.17;;;5.50;;
15812;SDS011;8007;51.404;6.304;2022-08-21T03:34:58;6.87;;;4.93;;
15812;SDS011;8007;51.404;6.304;2022-08-21T03:37:01;7.47;;;5.23;;
15812;SDS011;8007;51.404;6.304;2022-08-21T03:39:04;7.03;;;5.80;;
15812;SDS011;8007;51.404;6.304;2022-08-21T03:41:07;9.53;;;5.70;;
15812;SDS011;8007;51.404;6.304;2022-08-21T03:43:09;8.50;;;6.07;;
15812;SDS011;8007;51.404;6.304;2022-08-21T03:45:12;8.23;;;5.67;;
15812;SDS011;8007;51.404;6.304;2022-08-21T03:47:16;16.47;;;8.93;;
15812;SDS011;8007;51.404;6.304;2022-08-21T03:49:20;8.57;;;6.93;;
15812;SDS011;8007;51.404;6.304;2022-08-21T03:51:22;9.23;;;6.93;;
15812;SDS011;8007;51.404;6.304;2022-08-21T03:53:24;9.77;;;7.20;;
15812;SDS011;8007;51.404;6.304;2022-08-21T03:55:27;9.97;;;6.83;;
15812;SDS011;8007;51.404;6.304;2022-08-21T03:57:29;6.43;;;5.80;;
15812;SDS011;8007;51.404;6.304;2022-08-21T03:59:31;12.43;;;8.60;;
15812;SDS011;8007;51.404;6.304;2022-08-21T04:01:34;8.97;;;7.60;;
15812;SDS011;8007;51.404;6.304;2022-08-21T04:03:36;13.17;;;8.53;;
15812;SDS011;8007;51.404;6.304;2022-08-21T04:05:40;10.80;;;9.47;;
15812;SDS011;8007;51.404;6.304;2022-08-21T04:07:45;11.83;;;9.70;;
15812;SDS011;8007;51.404;6.304;2022-08-21T04:09:48;16.27;;;10.23;;
15812;SDS011;8007;51.404;6.304;2022-08-21T04:11:50;13.57;;;10.67;;
15812;SDS011;8007;51.404;6.304;2022-08-21T04:13:53;18.70;;;11.57;;
15812;SDS011;8007;51.404;6.304;2022-08-21T04:15:55;18.03;;;11.67;;
15812;SDS011;8007;51.404;6.304;2022-08-21T04:17:58;17.20;;;12.30;;
15812;SDS011;8007;51.404;6.304;2022-08-21T04:20:01;14.93;;;11.83;;
15812;SDS011;8007;51.404;6.304;2022-08-21T04:22:04;16.53;;;11.90;;
15812;SDS011;8007;51.404;6.304;2022-08-21T04:24:07;15.93;;;12.40;;
15812;SDS011;8007;51.404;6.304;2022-08-21T04:26:10;15.47;;;11.10;;
15812;SDS011;8007;51.404;6.304;2022-08-21T04:28:13;14.77;;;10.63;;
15812;SDS011;8007;51.404;6.304;2022-08-21T04:30:15;15.77;;;11.20;;
15812;SDS011;8007;51.404;6.304;2022-08-21T04:32:21;18.23;;;11.77;;
15812;SDS011;8007;51.404;6.304;2022-08-21T04:34:23;17.30;;;11.50;;
15812;SDS011;8007;51.404;6.304;2022-08-21T04:36:26;19.20;;;10.90;;
15812;SDS011;8007;51.404;6.304;2022-08-21T04:38:29;17.47;;;11.10;;
15812;SDS011;8007;51.404;6.304;2022-08-21T04:40:32;16.43;;;10.50;;
15812;SDS011;8007;51.404;6.304;2022-08-21T04:42:40;11.77;;;10.57;;
15812;SDS011;8007;51.404;6.304;2022-08-21T04:44:47;15.00;;;10.87;;
15812;SDS011;8007;51.404;6.304;2022-08-21T04:46:50;14.17;;;10.67;;
15812;SDS011;8007;51.404;6.304;2022-08-21T04:48:52;21.53;;;10.60;;
15812;SDS011;8007;51.404;6.304;2022-08-21T04:50:55;16.57;;;10.10;;
15812;SDS011;8007;51.404;6.304;2022-08-21T04:53:04;14.07;;;10.07;;
15812;SDS011;8007;51.404;6.304;2022-08-21T04:55:08;10.70;;;9.60;;
15812;SDS011;8007;51.404;6.304;2022-08-21T04:57:10;10.07;;;8.90;;
15812;SDS011;8007;51.404;6.304;2022-08-21T04:59:15;11.67;;;8.87;;
15812;SDS011;8007;51.404;6.304;2022-08-21T05:01:21;12.50;;;8.70;;
15812;SDS011;8007;51.404;6.304;2022-08-21T05:03:25;10.87;;;8.90;;
15812;SDS011;8007;51.404;6.304;2022-08-21T05:05:27;11.73;;;8.33;;
15812;SDS011;8007;51.404;6.304;2022-08-21T05:07:30;13.83;;;9.33;;
15812;SDS011;8007;51.404;6.304;2022-08-21T05:09:34;11.80;;;7.53;;
15812;SDS011;8007;51.404;6.304;2022-08-21T05:11:38;13.57;;;7.97;;
15812;SDS011;8007;51.404;6.304;2022-08-21T05:13:41;11.27;;;7.67;;
15812;SDS011;8007;51.404;6.304;2022-08-21T05:15:43;9.17;;;7.70;;
15812;SDS011;8007;51.404;6.304;2022-08-21T05:17:46;11.23;;;7.50;;
15812;SDS011;8007;51.404;6.304;2022-08-21T05:19:50;10.37;;;7.93;;
15812;SDS011;8007;51.404;6.304;2022-08-21T05:21:52;9.70;;;7.30;;
15812;SDS011;8007;51.404;6.304;2022-08-21T05:23:55;11.10;;;8.00;;
15812;SDS011;8007;51.404;6.304;2022-08-21T05:25:57;10.27;;;7.20;;
15812;SDS011;8007;51.404;6.304;2022-08-21T05:28:01;10.47;;;7.23;;
15812;SDS011;8007;51.404;6.304;2022-08-21T05:30:04;13.10;;;7.10;;
15812;SDS011;8007;51.404;6.304;2022-08-21T05:32:09;12.03;;;7.20;;
15812;SDS011;8007;51.404;6.304;2022-08-21T05:34:12;10.97;;;7.40;;
15812;SDS011;8007;51.404;6.304;2022-08-21T05:36:16;13.97;;;7.00;;
15812;SDS011;8007;51.404;6.304;2022-08-21T05:38:19;11.27;;;7.17;;
15812;SDS011;8007;51.404;6.304;2022-08-21T05:40:21;9.53;;;6.60;;
15812;SDS011;8007;51.404;6.304;2022-08-21T05:42:23;13.20;;;6.97;;
15812;SDS011;8007;51.404;6.304;2022-08-21T05:44:27;10.13;;;6.63;;
15812;SDS011;8007;51.404;6.304;2022-08-21T05:46:31;13.73;;;6.73;;
15812;SDS011;8007;51.404;6.304;2022-08-21T05:48:33;10.13;;;6.83;;
15812;SDS011;8007;51.404;6.304;2022-08-21T05:50:36;11.43;;;6.67;;
15812;SDS011;8007;51.404;6.304;2022-08-21T05:52:39;10.10;;;6.30;;
15812;SDS011;8007;51.404;6.304;2022-08-21T05:54:41;10.70;;;6.00;;
15812;SDS011;8007;51.404;6.304;2022-08-21T05:56:43;8.33;;;6.30;;
15812;SDS011;8007;51.404;6.304;2022-08-21T05:58:46;9.20;;;6.10;;
15812;SDS011;8007;51.404;6.304;2022-08-21T06:00:50;12.47;;;6.30;;
15812;SDS011;8007;51.404;6.304;2022-08-21T06:02:53;11.23;;;6.13;;
15812;SDS011;8007;51.404;6.304;2022-08-21T06:04:55;12.10;;;6.17;;
15812;SDS011;8007;51.404;6.304;2022-08-21T06:06:58;11.40;;;6.40;;
15812;SDS011;8007;51.404;6.304;2022-08-21T06:09:00;11.23;;;6.43;;
15812;SDS011;8007;51.404;6.304;2022-08-21T06:11:03;10.03;;;6.20;;
15812;SDS011;8007;51.404;6.304;2022-08-21T06:13:06;9.33;;;5.77;;
15812;SDS011;8007;51.404;6.304;2022-08-21T06:15:09;8.57;;;6.00;;
15812;SDS011;8007;51.404;6.304;2022-08-21T06:17:12;10.73;;;6.27;;
15812;SDS011;8007;51.404;6.304;2022-08-21T06:19:15;10.97;;;6.27;;
15812;SDS011;8007;51.404;6.304;2022-08-21T06:21:18;9.60;;;5.90;;
15812;SDS011;8007;51.404;6.304;2022-08-21T06:23:20;9.27;;;6.10;;
15812;SDS011;8007;51.404;6.304;2022-08-21T06:25:23;8.73;;;5.60;;
15812;SDS011;8007;51.404;6.304;2022-08-21T06:27:25;9.43;;;6.20;;
15812;SDS011;8007;51.404;6.304;2022-08-21T06:29:28;10.00;;;5.70;;
15812;SDS011;8007;51.404;6.304;2022-08-21T06:31:30;6.90;;;5.73;;
15812;SDS011;8007;51.404;6.304;2022-08-21T06:33:34;9.80;;;5.53;;
15812;SDS011;8007;51.404;6.304;2022-08-21T06:35:36;9.60;;;5.73;;
15812;SDS011;8007;51.404;6.304;2022-08-21T06:37:38;10.20;;;6.07;;
15812;SDS011;8007;51.404;6.304;2022-08-21T06:39:41;10.90;;;5.47;;
15812;SDS011;8007;51.404;6.304;2022-08-21T06:41:43;15.27;;;5.90;;
15812;SDS011;8007;51.404;6.304;2022-08-21T06:43:46;10.00;;;5.30;;
15812;SDS011;8007;51.404;6.304;2022-08-21T06:45:48;9.90;;;5.57;;
15812;SDS011;8007;51.404;6.304;2022-08-21T06:47:51;12.20;;;5.63;;
15812;SDS011;8007;51.404;6.304;2022-08-21T06:49:54;8.27;;;5.30;;
15812;SDS011;8007;51.404;6.304;2022-08-21T06:51:57;9.87;;;5.40;;
15812;SDS011;8007;51.404;6.304;2022-08-21T06:53:59;8.27;;;4.30;;
15812;SDS011;8007;51.404;6.304;2022-08-21T06:56:02;7.33;;;4.37;;
15812;SDS011;8007;51.404;6.304;2022-08-21T06:58:04;8.87;;;4.53;;
15812;SDS011;8007;51.404;6.304;2022-08-21T07:00:07;8.50;;;3.90;;
15812;SDS011;8007;51.404;6.304;2022-08-21T07:02:11;11.13;;;3.60;;
15812;SDS011;8007;51.404;6.304;2022-08-21T07:04:14;5.70;;;3.60;;
15812;SDS011;8007;51.404;6.304;2022-08-21T07:06:17;9.10;;;4.03;;
15812;SDS011;8007;51.404;6.304;2022-08-21T07:08:20;6.07;;;3.23;;
15812;SDS011;8007;51.404;6.304;2022-08-21T07:10:22;8.33;;;3.27;;
15812;SDS011;8007;51.404;6.304;2022-08-21T07:12:25;8.07;;;3.23;;
15812;SDS011;8007;51.404;6.304;2022-08-21T07:14:28;7.70;;;3.03;;
15812;SDS011;8007;51.404;6.304;2022-08-21T07:16:30;6.20;;;2.40;;
15812;SDS011;8007;51.404;6.304;2022-08-21T07:18:32;4.53;;;2.47;;
15812;SDS011;8007;51.404;6.304;2022-08-21T07:20:35;5.30;;;2.70;;
15812;SDS011;8007;51.404;6.304;2022-08-21T07:22:38;6.93;;;2.60;;
15812;SDS011;8007;51.404;6.304;2022-08-21T07:24:42;5.10;;;2.40;;
15812;SDS011;8007;51.404;6.304;2022-08-21T07:26:45;5.13;;;2.20;;
15812;SDS011;8007;51.404;6.304;2022-08-21T07:28:49;7.80;;;2.73;;
15812;SDS011;8007;51.404;6.304;2022-08-21T07:30:53;6.70;;;2.70;;
15812;SDS011;8007;51.404;6.304;2022-08-21T07:32:56;5.53;;;2.57;;
15812;SDS011;8007;51.404;6.304;2022-08-21T07:34:59;6.60;;;2.00;;
15812;SDS011;8007;51.404;6.304;2022-08-21T07:37:01;6.33;;;2.20;;
15812;SDS011;8007;51.404;6.304;2022-08-21T07:39:05;5.20;;;2.47;;
15812;SDS011;8007;51.404;6.304;2022-08-21T07:41:10;6.35;;;2.33;;
15812;SDS011;8007;51.404;6.304;2022-08-21T07:43:16;4.88;;;2.30;;
15812;SDS011;8007;51.404;6.304;2022-08-21T07:45:19;6.70;;;2.22;;
15812;SDS011;8007;51.404;6.304;2022-08-21T07:47:24;8.25;;;2.30;;
15812;SDS011;8007;51.404;6.304;2022-08-21T07:49:26;3.55;;;2.03;;
15812;SDS011;8007;51.404;6.304;2022-08-21T07:51:29;5.85;;;2.15;;
15812;SDS011;8007;51.404;6.304;2022-08-21T07:53:31;6.13;;;2.72;;
15812;SDS011;8007;51.404;6.304;2022-08-21T07:55:35;6.38;;;2.92;;
15812;SDS011;8007;51.404;6.304;2022-08-21T07:57:37;6.43;;;2.45;;
15812;SDS011;8007;51.404;6.304;2022-08-21T07:59:40;5.30;;;2.63;;
15812;SDS011;8007;51.404;6.304;2022-08-21T08:01:42;6.95;;;2.55;;
15812;SDS011;8007;51.404;6.304;2022-08-21T08:03:44;7.97;;;2.38;;
15812;SDS011;8007;51.404;6.304;2022-08-21T08:05:48;5.82;;;2.50;;
15812;SDS011;8007;51.404;6.304;2022-08-21T08:07:50;6.80;;;2.50;;
15812;SDS011;8007;51.404;6.304;2022-08-21T08:09:52;3.92;;;1.90;;
15812;SDS011;8007;51.404;6.304;2022-08-21T08:11:56;9.10;;;3.13;;
15812;SDS011;8007;51.404;6.304;2022-08-21T08:13:59;6.07;;;2.45;;
15812;SDS011;8007;51.404;6.304;2022-08-21T08:16:03;5.65;;;2.38;;
15812;SDS011;8007;51.404;6.304;2022-08-21T08:18:06;5.60;;;2.60;;
15812;SDS011;8007;51.404;6.304;2022-08-21T08:20:09;6.00;;;2.55;;
15812;SDS011;8007;51.404;6.304;2022-08-21T08:22:13;4.93;;;2.45;;
15812;SDS011;8007;51.404;6.304;2022-08-21T08:24:15;8.50;;;3.10;;
15812;SDS011;8007;51.404;6.304;2022-08-21T08:26:18;7.15;;;2.92;;
15812;SDS011;8007;51.404;6.304;2022-08-21T08:28:21;6.75;;;2.90;;
15812;SDS011;8007;51.404;6.304;2022-08-21T08:30:24;5.45;;;2.75;;
15812;SDS011;8007;51.404;6.304;2022-08-21T08:32:26;8.13;;;2.53;;
15812;SDS011;8007;51.404;6.304;2022-08-21T08:34:29;3.78;;;2.10;;
15812;SDS011;8007;51.404;6.304;2022-08-21T08:36:32;4.70;;;2.17;;
15812;SDS011;8007;51.404;6.304;2022-08-21T08:38:35;5.20;;;2.33;;
15812;SDS011;8007;51.404;6.304;2022-08-21T08:40:39;4.88;;;1.90;;
15812;SDS011;8007;51.404;6.304;2022-08-21T08:42:45;6.35;;;2.15;;
15812;SDS011;8007;51.404;6.304;2022-08-21T08:45:04;3.60;;;2.05;;
15812;SDS011;8007;51.404;6.304;2022-08-21T08:47:08;5.30;;;2.05;;
15812;SDS011;8007;51.404;6.304;2022-08-21T08:49:13;5.10;;;2.22;;
15812;SDS011;8007;51.404;6.304;2022-08-21T08:51:19;6.28;;;2.05;;
15812;SDS011;8007;51.404;6.304;2022-08-21T08:53:25;7.50;;;2.20;;
15812;SDS011;8007;51.404;6.304;2022-08-21T08:55:32;4.47;;;2.50;;
15812;SDS011;8007;51.404;6.304;2022-08-21T08:57:36;5.82;;;2.20;;
15812;SDS011;8007;51.404;6.304;2022-08-21T08:59:40;6.30;;;2.10;;
15812;SDS011;8007;51.404;6.304;2022-08-21T09:01:44;5.63;;;2.10;;
15812;SDS011;8007;51.404;6.304;2022-08-21T09:03:47;4.75;;;2.20;;
15812;SDS011;8007;51.404;6.304;2022-08-21T09:05:54;4.70;;;1.95;;
15812;SDS011;8007;51.404;6.304;2022-08-21T09:08:17;3.75;;;2.20;;
15812;SDS011;8007;51.404;6.304;2022-08-21T09:10:36;4.97;;;1.98;;
15812;SDS011;8007;51.404;6.304;2022-08-21T09:12:46;6.70;;;2.05;;
15812;SDS011;8007;51.404;6.304;2022-08-21T09:14:55;7.68;;;2.42;;
15812;SDS011;8007;51.404;6.304;2022-08-21T09:17:04;3.33;;;1.75;;
15812;SDS011;8007;51.404;6.304;2022-08-21T09:19:19;5.90;;;2.30;;
15812;SDS011;8007;51.404;6.304;2022-08-21T09:21:32;4.95;;;2.10;;
15812;SDS011;8007;51.404;6.304;2022-08-21T09:23:43;5.95;;;1.95;;
15812;SDS011;8007;51.404;6.304;2022-08-21T09:25:53;6.50;;;2.03;;
15812;SDS011;8007;51.404;6.304;2022-08-21T09:28:00;2.97;;;1.80;;
15812;SDS011;8007;51.404;6.304;2022-08-21T09:30:04;3.78;;;1.50;;
15812;SDS011;8007;51.404;6.304;2022-08-21T09:32:11;4.75;;;2.50;;
15812;SDS011;8007;51.404;6.304;2022-08-21T09:34:24;3.25;;;1.60;;
15812;SDS011;8007;51.404;6.304;2022-08-21T09:36:31;5.07;;;1.98;;
15812;SDS011;8007;51.404;6.304;2022-08-21T09:38:37;3.58;;;1.65;;
15812;SDS011;8007;51.404;6.304;2022-08-21T09:40:41;2.60;;;1.60;;
15812;SDS011;8007;51.404;6.304;2022-08-21T09:42:53;4.55;;;1.40;;
15812;SDS011;8007;51.404;6.304;2022-08-21T09:45:08;3.25;;;1.60;;
15812;SDS011;8007;51.404;6.304;2022-08-21T09:47:13;3.97;;;1.50;;
15812;SDS011;8007;51.404;6.304;2022-08-21T09:49:27;4.32;;;1.48;;
15812;SDS011;8007;51.404;6.304;2022-08-21T09:51:31;4.75;;;1.60;;
15812;SDS011;8007;51.404;6.304;2022-08-21T09:53:37;2.92;;;1.55;;
15812;SDS011;8007;51.404;6.304;2022-08-21T09:55:47;3.35;;;1.60;;
15812;SDS011;8007;51.404;6.304;2022-08-21T09:58:09;2.95;;;1.60;;
15812;SDS011;8007;51.404;6.304;2022-08-21T10:00:15;3.38;;;1.90;;
15812;SDS011;8007;51.404;6.304;2022-08-21T10:02:31;2.83;;;1.58;;
15812;SDS011;8007;51.404;6.304;2022-08-21T10:04:35;3.33;;;1.52;;
15812;SDS011;8007;51.404;6.304;2022-08-21T10:06:38;2.78;;;1.38;;
15812;SDS011;8007;51.404;6.304;2022-08-21T10:08:41;4.05;;;1.40;;
15812;SDS011;8007;51.404;6.304;2022-08-21T10:10:43;3.70;;;1.55;;
15812;SDS011;8007;51.404;6.304;2022-08-21T10:12:48;4.78;;;1.50;;
15812;SDS011;8007;51.404;6.304;2022-08-21T10:15:05;3.00;;;1.35;;
15812;SDS011;8007;51.404;6.304;2022-08-21T10:17:15;4.43;;;1.58;;
15812;SDS011;8007;51.404;6.304;2022-08-21T10:19:22;2.55;;;1.50;;
15812;SDS011;8007;51.404;6.304;2022-08-21T10:21:27;4.32;;;1.70;;
15812;SDS011;8007;51.404;6.304;2022-08-21T10:23:38;3.75;;;1.40;;
15812;SDS011;8007;51.404;6.304;2022-08-21T10:25:48;4.55;;;1.58;;
15812;SDS011;8007;51.404;6.304;2022-08-21T10:27:55;3.10;;;1.20;;
15812;SDS011;8007;51.404;6.304;2022-08-21T10:30:02;4.68;;;1.92;;
15812;SDS011;8007;51.404;6.304;2022-08-21T10:32:08;7.40;;;1.50;;
15812;SDS011;8007;51.404;6.304;2022-08-21T10:34:23;1.98;;;1.58;;
15812;SDS011;8007;51.404;6.304;2022-08-21T10:36:33;2.95;;;1.63;;
15812;SDS011;8007;51.404;6.304;2022-08-21T10:41:00;3.00;;;1.50;;
15812;SDS011;8007;51.404;6.304;2022-08-21T10:43:09;3.75;;;1.55;;
15812;SDS011;8007;51.404;6.304;2022-08-21T10:45:22;3.50;;;1.60;;
15812;SDS011;8007;51.404;6.304;2022-08-21T10:47:32;4.45;;;1.60;;
15812;SDS011;8007;51.404;6.304;2022-08-21T10:49:40;3.95;;;1.50;;
15812;SDS011;8007;51.404;6.304;2022-08-21T10:51:46;2.83;;;1.60;;
15812;SDS011;8007;51.404;6.304;2022-08-21T10:53:55;3.30;;;1.60;;
15812;SDS011;8007;51.404;6.304;2022-08-21T10:56:02;4.35;;;1.75;;
15812;SDS011;8007;51.404;6.304;2022-08-21T10:58:12;2.95;;;1.40;;
15812;SDS011;8007;51.404;6.304;2022-08-21T11:00:19;2.40;;;1.42;;
15812;SDS011;8007;51.404;6.304;2022-08-21T11:02:25;5.53;;;1.80;;
15812;SDS011;8007;51.404;6.304;2022-08-21T11:04:30;3.97;;;1.63;;
15812;SDS011;8007;51.404;6.304;2022-08-21T11:06:36;2.47;;;1.45;;
15812;SDS011;8007;51.404;6.304;2022-08-21T11:08:42;5.18;;;1.60;;
15812;SDS011;8007;51.404;6.304;2022-08-21T11:10:47;4.80;;;1.33;;
15812;SDS011;8007;51.404;6.304;2022-08-21T11:12:52;3.10;;;1.38;;
15812;SDS011;8007;51.404;6.304;2022-08-21T11:14:58;2.05;;;1.45;;
15812;SDS011;8007;51.404;6.304;2022-08-21T11:17:05;4.40;;;1.63;;
15812;SDS011;8007;51.404;6.304;2022-08-21T11:19:12;3.42;;;1.55;;
15812;SDS011;8007;51.404;6.304;2022-08-21T11:21:27;3.05;;;1.85;;
15812;SDS011;8007;51.404;6.304;2022-08-21T11:23:39;2.90;;;1.40;;
15812;SDS011;8007;51.404;6.304;2022-08-21T11:25:45;3.13;;;1.40;;
15812;SDS011;8007;51.404;6.304;2022-08-21T11:27:51;2.60;;;1.70;;
15812;SDS011;8007;51.404;6.304;2022-08-21T11:29:56;6.60;;;1.70;;
15812;SDS011;8007;51.404;6.304;2022-08-21T11:32:07;2.28;;;1.30;;
15812;SDS011;8007;51.404;6.304;2022-08-21T11:34:34;7.68;;;1.58;;
15812;SDS011;8007;51.404;6.304;2022-08-21T11:36:49;3.85;;;1.50;;
15812;SDS011;8007;51.404;6.304;2022-08-21T11:38:59;1.48;;;1.33;;
15812;SDS011;8007;51.404;6.304;2022-08-21T11:41:13;3.33;;;1.42;;
15812;SDS011;8007;51.404;6.304;2022-08-21T11:43:24;2.13;;;1.77;;
15812;SDS011;8007;51.404;6.304;2022-08-21T11:45:32;3.22;;;1.67;;
15812;SDS011;8007;51.404;6.304;2022-08-21T11:47:42;4.03;;;1.48;;
15812;SDS011;8007;51.404;6.304;2022-08-21T11:49:53;3.95;;;1.58;;
15812;SDS011;8007;51.404;6.304;2022-08-21T11:52:07;3.33;;;1.50;;
15812;SDS011;8007;51.404;6.304;2022-08-21T11:54:16;3.85;;;1.48;;
15812;SDS011;8007;51.404;6.304;2022-08-21T11:56:24;3.72;;;1.42;;
15812;SDS011;8007;51.404;6.304;2022-08-21T11:58:31;2.08;;;1.27;;
15812;SDS011;8007;51.404;6.304;2022-08-21T12:00:38;3.08;;;1.38;;
15812;SDS011;8007;51.404;6.304;2022-08-21T12:02:45;3.55;;;1.58;;
15812;SDS011;8007;51.404;6.304;2022-08-21T12:04:53;3.80;;;1.92;;
15812;SDS011;8007;51.404;6.304;2022-08-21T12:07:08;3.30;;;1.52;;
15812;SDS011;8007;51.404;6.304;2022-08-21T12:09:30;1.40;;;1.25;;
15812;SDS011;8007;51.404;6.304;2022-08-21T12:11:45;2.55;;;1.33;;
15812;SDS011;8007;51.404;6.304;2022-08-21T12:13:53;4.07;;;1.52;;
15812;SDS011;8007;51.404;6.304;2022-08-21T12:16:04;3.03;;;1.80;;
15812;SDS011;8007;51.404;6.304;2022-08-21T12:18:20;3.75;;;1.60;;
15812;SDS011;8007;51.404;6.304;2022-08-21T12:20:36;5.75;;;1.67;;
15812;SDS011;8007;51.404;6.304;2022-08-21T12:22:47;3.53;;;1.77;;
15812;SDS011;8007;51.404;6.304;2022-08-21T12:25:02;5.28;;;1.60;;
15812;SDS011;8007;51.404;6.304;2022-08-21T12:27:14;2.28;;;1.60;;
15812;SDS011;8007;51.404;6.304;2022-08-21T12:29:25;2.08;;;1.23;;
15812;SDS011;8007;51.404;6.304;2022-08-21T12:31:29;2.75;;;1.67;;
15812;SDS011;8007;51.404;6.304;2022-08-21T12:33:32;6.35;;;1.90;;
15812;SDS011;8007;51.404;6.304;2022-08-21T12:35:39;4.28;;;1.60;;
15812;SDS011;8007;51.404;6.304;2022-08-21T12:37:44;3.60;;;1.33;;
15812;SDS011;8007;51.404;6.304;2022-08-21T12:39:49;4.40;;;1.40;;
15812;SDS011;8007;51.404;6.304;2022-08-21T12:41:55;3.60;;;1.40;;
15812;SDS011;8007;51.404;6.304;2022-08-21T12:44:01;4.05;;;1.80;;